Bay City, MI

6:57 AM EST on January 31, 2015 (GMT -0500)
Delta College | Change Station
CLOSE
Current Station
Personal Weather Station
Location: University Center, MI
Elevation: 637 ft
Nearby Weather Stations

Elev 637 ft 43.56 °N, 83.99 °W | Updated 1 minute ago

Overcast
Overcast
18.1 °F
Feels Like 18 °F
N
1.0
Wind Variable Wind from SSE
Gusts 7.0 mph

Today
High -- | Low -- °F
--% Chance of Precip.
Yesterday
High -- | Low -- °F
Precip. -- in
7:53 AM 5:45 PM
Waxing Gibbous, 89% visible
Pressure 30.29 in
Visibility 10.0 miles
Clouds Overcast 9500 ft
Windchill 18 °F
Dew Point 14 °F
Humidity 82%
Rainfall 0.00 in
Snow Depth Not available.
UV 0 out of 12
Pollen .10 out of 12
Air Quality Not available.
Flu Activity Not available.
METAR KMBS 311053Z 20006KT 10SM OVC095 M07/M12 A3025 RMK AO2 SLP256 T10721117

More Conditions Fewer Conditions

Pressure 30.29 in
Visibility 10.0 miles
Clouds Overcast 9500 ft
Windchill 18 °F
Dew Point 14 °F
Humidity 82%
Rainfall 0.00 in
Snow Depth Not available.
UV 0 out of 12
Pollen .10 out of 12
Air Quality Not available.
Flu Activity Not available.
METAR KMBS 311053Z 20006KT 10SM OVC095 M07/M12 A3025 RMK AO2 SLP256 T10721117

More Conditions Fewer Conditions

10-Day Weather Forecast

Almanac

Astronomy

Jan. 31, 2015 Rise Set
Actual Time
Civil Twilight
Nautical Twilight
Astronomical Twilight
Moon
Length of Visible Light
Length of Day
Tomorrow will be .
, % of the Moon is Illuminated

Today's Extremes

State Highs State Lows

Community

WunderPhotos

Upload Photos

1,792,032 photos uploaded!

WunderBlogs® & News

Nearby

Air Quality

  Air Quality AQ Index Pollutant
Not available.

Snow Depth

Station Depth Elevation

Earthquake Activity

City Distance Mag. Time & Date
Minimum magnitude displayed is 2.5.

Coastal Water Temperatures

Place Temperature

Nearby Weather Stations